sensor_id;sensor_type;location;lat;lon;timestamp;pressure;altitude;pressure_sealevel;temperature;humidity
79123;BME280;68526;44.600;26.032;2023-07-29T00:00:13;100166.63;;;19.05;62.71
79123;BME280;68526;44.600;26.032;2023-07-29T00:00:29;100168.63;;;19.05;62.55
79123;BME280;68526;44.600;26.032;2023-07-29T00:00:46;100167.44;;;19.06;62.55
79123;BME280;68526;44.600;26.032;2023-07-29T00:01:02;100170.22;;;19.06;62.48
79123;BME280;68526;44.600;26.032;2023-07-29T00:01:18;100163.47;;;19.07;62.79
79123;BME280;68526;44.600;26.032;2023-07-29T00:01:34;100162.69;;;19.06;62.77
79123;BME280;68526;44.600;26.032;2023-07-29T00:01:50;100163.81;;;19.02;62.88
79123;BME280;68526;44.600;26.032;2023-07-29T00:02:06;100168.97;;;19.03;62.81
79123;BME280;68526;44.600;26.032;2023-07-29T00:02:22;100172.19;;;19.05;62.71
79123;BME280;68526;44.600;26.032;2023-07-29T00:02:39;100167.03;;;19.04;62.76
79123;BME280;68526;44.600;26.032;2023-07-29T00:02:55;100157.88;;;19.03;62.84
79123;BME280;68526;44.600;26.032;2023-07-29T00:03:11;100165.72;;;18.94;63.02
79123;BME280;68526;44.600;26.032;2023-07-29T00:03:27;100170.47;;;18.93;63.30
79123;BME280;68526;44.600;26.032;2023-07-29T00:03:45;100167.31;;;18.95;63.17
79123;BME280;68526;44.600;26.032;2023-07-29T00:04:02;100169.31;;;18.94;63.31
79123;BME280;68526;44.600;26.032;2023-07-29T00:04:18;100168.91;;;18.92;63.49
79123;BME280;68526;44.600;26.032;2023-07-29T00:04:34;100161.38;;;18.93;63.54
79123;BME280;68526;44.600;26.032;2023-07-29T00:04:50;100167.72;;;18.93;63.26
79123;BME280;68526;44.600;26.032;2023-07-29T00:05:06;100165.31;;;18.92;63.48
79123;BME280;68526;44.600;26.032;2023-07-29T00:05:22;100164.88;;;18.86;63.17
79123;BME280;68526;44.600;26.032;2023-07-29T00:05:38;100170.03;;;18.88;63.37
79123;BME280;68526;44.600;26.032;2023-07-29T00:05:55;100162.44;;;18.85;63.41
79123;BME280;68526;44.600;26.032;2023-07-29T00:06:10;100167.25;;;18.88;63.21
79123;BME280;68526;44.600;26.032;2023-07-29T00:06:26;100164.09;;;18.89;63.00
79123;BME280;68526;44.600;26.032;2023-07-29T00:06:42;100163.34;;;18.92;63.18
79123;BME280;68526;44.600;26.032;2023-07-29T00:06:59;100166.44;;;18.87;63.16
79123;BME280;68526;44.600;26.032;2023-07-29T00:07:15;100168.03;;;18.88;63.58
79123;BME280;68526;44.600;26.032;2023-07-29T00:07:31;100164.47;;;18.88;63.61
79123;BME280;68526;44.600;26.032;2023-07-29T00:07:47;100164.47;;;18.88;63.49
79123;BME280;68526;44.600;26.032;2023-07-29T00:08:04;100165.19;;;18.81;63.57
79123;BME280;68526;44.600;26.032;2023-07-29T00:08:20;100169.97;;;18.84;64.00
79123;BME280;68526;44.600;26.032;2023-07-29T00:08:35;100170.38;;;18.83;63.90
79123;BME280;68526;44.600;26.032;2023-07-29T00:08:51;100169.19;;;18.84;63.95
79123;BME280;68526;44.600;26.032;2023-07-29T00:09:07;100169.63;;;18.86;63.72
79123;BME280;68526;44.600;26.032;2023-07-29T00:09:23;100169.16;;;18.80;64.20
79123;BME280;68526;44.600;26.032;2023-07-29T00:09:40;100167.53;;;18.79;64.34
79123;BME280;68526;44.600;26.032;2023-07-29T00:09:55;100161.19;;;18.79;64.15
79123;BME280;68526;44.600;26.032;2023-07-29T00:10:11;100163.94;;;18.75;64.51
79123;BME280;68526;44.600;26.032;2023-07-29T00:10:27;100169.09;;;18.77;64.08
79123;BME280;68526;44.600;26.032;2023-07-29T00:10:43;100163.97;;;18.79;63.86
79123;BME280;68526;44.600;26.032;2023-07-29T00:10:59;100158.81;;;18.77;64.15
79123;BME280;68526;44.600;26.032;2023-07-29T00:11:14;100165.19;;;18.81;64.11
79123;BME280;68526;44.600;26.032;2023-07-29T00:11:30;100160.44;;;18.82;63.99
79123;BME280;68526;44.600;26.032;2023-07-29T00:11:49;100171.94;;;18.80;64.34
79123;BME280;68526;44.600;26.032;2023-07-29T00:12:05;100163.22;;;18.82;64.12
79123;BME280;68526;44.600;26.032;2023-07-29T00:12:21;100167.19;;;18.81;63.94
79123;BME280;68526;44.600;26.032;2023-07-29T00:12:36;100166.41;;;18.84;63.84
79123;BME280;68526;44.600;26.032;2023-07-29T00:12:52;100163.63;;;18.84;64.00
79123;BME280;68526;44.600;26.032;2023-07-29T00:13:08;100167.19;;;18.81;64.21
79123;BME280;68526;44.600;26.032;2023-07-29T00:13:24;100167.19;;;18.81;64.14
79123;BME280;68526;44.600;26.032;2023-07-29T00:13:41;100160.84;;;18.80;64.27
79123;BME280;68526;44.600;26.032;2023-07-29T00:13:57;100166.38;;;18.80;64.18
79123;BME280;68526;44.600;26.032;2023-07-29T00:14:12;100164.75;;;18.76;64.48
79123;BME280;68526;44.600;26.032;2023-07-29T00:14:28;100163.94;;;18.75;64.75
79123;BME280;68526;44.600;26.032;2023-07-29T00:14:44;100153.25;;;18.77;64.43
79123;BME280;68526;44.600;26.032;2023-07-29T00:15:00;100162.75;;;18.76;64.32
79123;BME280;68526;44.600;26.032;2023-07-29T00:15:16;100159.59;;;18.74;64.66
79123;BME280;68526;44.600;26.032;2023-07-29T00:15:33;100158.00;;;18.77;64.45
79123;BME280;68526;44.600;26.032;2023-07-29T00:15:53;100158.41;;;18.79;64.14
79123;BME280;68526;44.600;26.032;2023-07-29T00:16:09;100163.63;;;18.80;64.08
79123;BME280;68526;44.600;26.032;2023-07-29T00:16:25;100168.38;;;18.80;64.40
79123;BME280;68526;44.600;26.032;2023-07-29T00:16:41;100159.22;;;18.79;64.50
79123;BME280;68526;44.600;26.032;2023-07-29T00:16:58;100154.06;;;18.78;64.66
79123;BME280;68526;44.600;26.032;2023-07-29T00:17:14;100156.41;;;18.76;64.61
79123;BME280;68526;44.600;26.032;2023-07-29T00:17:29;100165.94;;;18.78;64.42
79123;BME280;68526;44.600;26.032;2023-07-29T00:17:46;100160.00;;;18.76;64.19
79123;BME280;68526;44.600;26.032;2023-07-29T00:18:02;100157.16;;;18.73;64.62
79123;BME280;68526;44.600;26.032;2023-07-29T00:18:18;100159.19;;;18.76;64.94
79123;BME280;68526;44.600;26.032;2023-07-29T00:18:34;100160.72;;;18.73;64.69
79123;BME280;68526;44.600;26.032;2023-07-29T00:18:49;100162.34;;;18.74;64.96
79123;BME280;68526;44.600;26.032;2023-07-29T00:19:05;100152.84;;;18.75;64.78
79123;BME280;68526;44.600;26.032;2023-07-29T00:19:21;100156.41;;;18.76;64.73
79123;BME280;68526;44.600;26.032;2023-07-29T00:19:38;100158.75;;;18.74;65.08
79123;BME280;68526;44.600;26.032;2023-07-29T00:19:55;100155.19;;;18.73;64.85
79123;BME280;68526;44.600;26.032;2023-07-29T00:20:11;100158.41;;;18.75;64.86
79123;BME280;68526;44.600;26.032;2023-07-29T00:20:27;100159.19;;;18.76;64.91
79123;BME280;68526;44.600;26.032;2023-07-29T00:20:43;100155.63;;;18.75;64.96
79123;BME280;68526;44.600;26.032;2023-07-29T00:20:58;100148.84;;;18.73;64.86
79123;BME280;68526;44.600;26.032;2023-07-29T00:21:14;100154.81;;;18.75;64.78
79123;BME280;68526;44.600;26.032;2023-07-29T00:21:30;100152.84;;;18.75;64.68
79123;BME280;68526;44.600;26.032;2023-07-29T00:21:46;100149.69;;;18.77;64.64
79123;BME280;68526;44.600;26.032;2023-07-29T00:22:04;100150.88;;;18.76;64.65
79123;BME280;68526;44.600;26.032;2023-07-29T00:22:20;100150.88;;;18.76;64.67
79123;BME280;68526;44.600;26.032;2023-07-29T00:22:36;100151.28;;;18.78;64.61
79123;BME280;68526;44.600;26.032;2023-07-29T00:22:52;100151.28;;;18.78;64.62
79123;BME280;68526;44.600;26.032;2023-07-29T00:23:09;100153.25;;;18.77;64.65
79123;BME280;68526;44.600;26.032;2023-07-29T00:23:25;100152.06;;;18.78;64.76
79123;BME280;68526;44.600;26.032;2023-07-29T00:23:40;100148.13;;;18.79;65.15
79123;BME280;68526;44.600;26.032;2023-07-29T00:23:56;100147.28;;;18.75;64.73
79123;BME280;68526;44.600;26.032;2023-07-29T00:24:13;100137.75;;;18.73;64.84
79123;BME280;68526;44.600;26.032;2023-07-29T00:24:29;100148.03;;;18.68;65.65
79123;BME280;68526;44.600;26.032;2023-07-29T00:24:51;100145.28;;;18.72;65.18
79123;BME280;68526;44.600;26.032;2023-07-29T00:25:07;100144.88;;;18.74;64.99
79123;BME280;68526;44.600;26.032;2023-07-29T00:25:23;100137.75;;;18.73;65.23
79123;BME280;68526;44.600;26.032;2023-07-29T00:25:39;100139.31;;;18.74;65.29
79123;BME280;68526;44.600;26.032;2023-07-29T00:25:56;100141.75;;;18.75;65.01
79123;BME280;68526;44.600;26.032;2023-07-29T00:26:12;100142.94;;;18.74;65.30
79123;BME280;68526;44.600;26.032;2023-07-29T00:26:28;100144.09;;;18.73;65.46
79123;BME280;68526;44.600;26.032;2023-07-29T00:26:44;100143.72;;;18.75;65.20
79123;BME280;68526;44.600;26.032;2023-07-29T00:27:00;100147.28;;;18.75;65.42
79123;BME280;68526;44.600;26.032;2023-07-29T00:27:15;100142.94;;;18.74;65.17
79123;BME280;68526;44.600;26.032;2023-07-29T00:27:32;100147.28;;;18.75;65.14
79123;BME280;68526;44.600;26.032;2023-07-29T00:27:48;100136.56;;;18.74;65.57
79123;BME280;68526;44.600;26.032;2023-07-29T00:28:04;100139.72;;;18.72;65.40
79123;BME280;68526;44.600;26.032;2023-07-29T00:28:20;100138.91;;;18.68;65.98
79123;BME280;68526;44.600;26.032;2023-07-29T00:28:36;100139.69;;;18.68;65.69
79123;BME280;68526;44.600;26.032;2023-07-29T00:28:51;100144.47;;;18.72;65.25
79123;BME280;68526;44.600;26.032;2023-07-29T00:29:08;100140.41;;;18.65;66.16
79123;BME280;68526;44.600;26.032;2023-07-29T00:29:24;100137.72;;;18.69;65.80
79123;BME280;68526;44.600;26.032;2023-07-29T00:29:40;100141.28;;;18.70;65.90
79123;BME280;68526;44.600;26.032;2023-07-29T00:29:56;100136.16;;;18.72;65.58
79123;BME280;68526;44.600;26.032;2023-07-29T00:30:11;100145.28;;;18.72;65.52
79123;BME280;68526;44.600;26.032;2023-07-29T00:30:27;100130.59;;;18.72;65.43
79123;BME280;68526;44.600;26.032;2023-07-29T00:30:44;100139.31;;;18.70;65.81
79123;BME280;68526;44.600;26.032;2023-07-29T00:31:01;100127.41;;;18.70;66.03
79123;BME280;68526;44.600;26.032;2023-07-29T00:31:17;100133.34;;;18.68;66.16
79123;BME280;68526;44.600;26.032;2023-07-29T00:31:33;100139.69;;;18.68;66.14
79123;BME280;68526;44.600;26.032;2023-07-29T00:31:48;100134.56;;;18.71;65.92
79123;BME280;68526;44.600;26.032;2023-07-29T00:32:05;100129.00;;;18.71;65.49
79123;BME280;68526;44.600;26.032;2023-07-29T00:32:21;100133.75;;;18.70;65.66
79123;BME280;68526;44.600;26.032;2023-07-29T00:32:37;100134.97;;;18.73;65.87
79123;BME280;68526;44.600;26.032;2023-07-29T00:32:53;100137.38;;;18.74;65.67
79123;BME280;68526;44.600;26.032;2023-07-29T00:33:09;100133.00;;;18.73;65.63
79123;BME280;68526;44.600;26.032;2023-07-29T00:33:25;100132.19;;;18.73;65.80
79123;BME280;68526;44.600;26.032;2023-07-29T00:33:41;100136.91;;;18.68;66.15
79123;BME280;68526;44.600;26.032;2023-07-29T00:33:56;100136.53;;;18.70;65.72
79123;BME280;68526;44.600;26.032;2023-07-29T00:34:13;100136.94;;;18.72;65.53
79123;BME280;68526;44.600;26.032;2023-07-29T00:34:34;100136.16;;;18.72;65.79
79123;BME280;68526;44.600;26.032;2023-07-29T00:34:49;100136.53;;;18.70;65.65
79123;BME280;68526;44.600;26.032;2023-07-29T00:35:06;100136.91;;;18.68;66.07
79123;BME280;68526;44.600;26.032;2023-07-29T00:35:22;100135.75;;;18.70;65.95
79123;BME280;68526;44.600;26.032;2023-07-29T00:35:38;100129.81;;;18.71;65.58
79123;BME280;68526;44.600;26.032;2023-07-29T00:35:54;100140.91;;;18.71;65.76
79123;BME280;68526;44.600;26.032;2023-07-29T00:36:10;100134.56;;;18.71;65.80
79123;BME280;68526;44.600;26.032;2023-07-29T00:36:26;100132.19;;;18.73;65.58
79123;BME280;68526;44.600;26.032;2023-07-29T00:36:42;100136.56;;;18.74;65.62
79123;BME280;68526;44.600;26.032;2023-07-29T00:36:58;100135.75;;;18.73;65.60
79123;BME280;68526;44.600;26.032;2023-07-29T00:37:15;100132.19;;;18.73;65.62
79123;BME280;68526;44.600;26.032;2023-07-29T00:37:31;100138.53;;;18.73;65.68
79123;BME280;68526;44.600;26.032;2023-07-29T00:37:47;100135.41;;;18.75;65.40
79123;BME280;68526;44.600;26.032;2023-07-29T00:38:03;100136.19;;;18.75;65.55
79123;BME280;68526;44.600;26.032;2023-07-29T00:38:19;100140.16;;;18.74;65.64
79123;BME280;68526;44.600;26.032;2023-07-29T00:38:35;100136.91;;;18.68;66.07
79123;BME280;68526;44.600;26.032;2023-07-29T00:38:51;100136.13;;;18.68;66.24
79123;BME280;68526;44.600;26.032;2023-07-29T00:39:08;100132.16;;;18.69;65.94
79123;BME280;68526;44.600;26.032;2023-07-29T00:39:24;100137.34;;;18.71;65.69
79123;BME280;68526;44.600;26.032;2023-07-29T00:39:40;100130.09;;;18.66;65.74
79123;BME280;68526;44.600;26.032;2023-07-29T00:39:57;100136.91;;;18.68;65.42
79123;BME280;68526;44.600;26.032;2023-07-29T00:40:15;100140.91;;;18.71;65.24
79123;BME280;68526;44.600;26.032;2023-07-29T00:40:35;100131.78;;;18.71;65.64
79123;BME280;68526;44.600;26.032;2023-07-29T00:40:52;100138.44;;;18.66;66.15
79123;BME280;68526;44.600;26.032;2023-07-29T00:41:08;100132.47;;;18.64;65.89
79123;BME280;68526;44.600;26.032;2023-07-29T00:41:24;100131.28;;;18.65;65.53
79123;BME280;68526;44.600;26.032;2023-07-29T00:41:42;100129.31;;;18.65;65.80
79123;BME280;68526;44.600;26.032;2023-07-29T00:41:58;100132.09;;;18.65;65.89
79123;BME280;68526;44.600;26.032;2023-07-29T00:42:14;100132.88;;;18.66;65.67
79123;BME280;68526;44.600;26.032;2023-07-29T00:42:29;100130.88;;;18.63;65.73
79123;BME280;68526;44.600;26.032;2023-07-29T00:42:45;100132.09;;;18.65;65.71
79123;BME280;68526;44.600;26.032;2023-07-29T00:43:01;100124.94;;;18.64;65.95
79123;BME280;68526;44.600;26.032;2023-07-29T00:43:17;100133.66;;;18.63;65.86
79123;BME280;68526;44.600;26.032;2023-07-29T00:43:33;100132.06;;;18.62;65.82
79123;BME280;68526;44.600;26.032;2023-07-29T00:43:49;100128.06;;;18.59;65.89
79123;BME280;68526;44.600;26.032;2023-07-29T00:44:05;100129.28;;;18.62;65.83
79123;BME280;68526;44.600;26.032;2023-07-29T00:44:21;100139.22;;;18.63;65.64
79123;BME280;68526;44.600;26.032;2023-07-29T00:44:37;100134.06;;;18.65;65.72
79123;BME280;68526;44.600;26.032;2023-07-29T00:44:53;100141.22;;;18.66;65.46
79123;BME280;68526;44.600;26.032;2023-07-29T00:45:09;100133.28;;;18.64;65.61
79123;BME280;68526;44.600;26.032;2023-07-29T00:45:26;100132.09;;;18.65;65.54
79123;BME280;68526;44.600;26.032;2023-07-29T00:45:44;100134.88;;;18.65;65.52
79123;BME280;68526;44.600;26.032;2023-07-29T00:46:00;100133.69;;;18.66;65.55
79123;BME280;68526;44.600;26.032;2023-07-29T00:46:16;100131.28;;;18.65;65.88
79123;BME280;68526;44.600;26.032;2023-07-29T00:46:34;100137.63;;;18.65;65.61
79123;BME280;68526;44.600;26.032;2023-07-29T00:46:52;100132.09;;;18.65;65.91
79123;BME280;68526;44.600;26.032;2023-07-29T00:47:08;100128.53;;;18.65;65.81
79123;BME280;68526;44.600;26.032;2023-07-29T00:47:25;100129.69;;;18.64;66.11
79123;BME280;68526;44.600;26.032;2023-07-29T00:47:42;100132.88;;;18.66;65.74
79123;BME280;68526;44.600;26.032;2023-07-29T00:47:59;100133.69;;;18.66;65.77
79123;BME280;68526;44.600;26.032;2023-07-29T00:48:15;100131.28;;;18.65;65.86
79123;BME280;68526;44.600;26.032;2023-07-29T00:48:31;100132.09;;;18.65;65.78
79123;BME280;68526;44.600;26.032;2023-07-29T00:48:47;100133.69;;;18.66;65.71
79123;BME280;68526;44.600;26.032;2023-07-29T00:49:03;100130.91;;;18.66;65.68
79123;BME280;68526;44.600;26.032;2023-07-29T00:49:19;100128.53;;;18.65;65.51
79123;BME280;68526;44.600;26.032;2023-07-29T00:49:36;100128.53;;;18.65;65.48
79123;BME280;68526;44.600;26.032;2023-07-29T00:49:52;100130.88;;;18.63;65.90
79123;BME280;68526;44.600;26.032;2023-07-29T00:50:09;100141.13;;;18.59;65.90
79123;BME280;68526;44.600;26.032;2023-07-29T00:50:26;100137.56;;;18.58;65.95
79123;BME280;68526;44.600;26.032;2023-07-29T00:50:43;100127.25;;;18.59;66.00
79123;BME280;68526;44.600;26.032;2023-07-29T00:50:59;100128.84;;;18.56;65.91
79123;BME280;68526;44.600;26.032;2023-07-29T00:51:16;100134.00;;;18.58;65.98
79123;BME280;68526;44.600;26.032;2023-07-29T00:51:32;100137.19;;;18.60;65.87
79123;BME280;68526;44.600;26.032;2023-07-29T00:51:48;100131.63;;;18.60;65.78
79123;BME280;68526;44.600;26.032;2023-07-29T00:52:04;100131.22;;;18.58;66.06
79123;BME280;68526;44.600;26.032;2023-07-29T00:52:22;100135.59;;;18.59;65.88
79123;BME280;68526;44.600;26.032;2023-07-29T00:52:37;100132.00;;;18.58;65.95
79123;BME280;68526;44.600;26.032;2023-07-29T00:52:55;100130.03;;;18.59;66.06
79123;BME280;68526;44.600;26.032;2023-07-29T00:53:11;100127.22;;;18.55;66.24
79123;BME280;68526;44.600;26.032;2023-07-29T00:53:27;100127.59;;;18.54;66.33
79123;BME280;68526;44.600;26.032;2023-07-29T00:53:43;100130.00;;;18.55;66.13
79123;BME280;68526;44.600;26.032;2023-07-29T00:53:59;100134.38;;;18.56;66.19
79123;BME280;68526;44.600;26.032;2023-07-29T00:54:15;100130.78;;;18.56;65.96
79123;BME280;68526;44.600;26.032;2023-07-29T00:54:32;100123.63;;;18.51;66.02
79123;BME280;68526;44.600;26.032;2023-07-29T00:54:47;100127.22;;;18.55;66.00
79123;BME280;68526;44.600;26.032;2023-07-29T00:55:04;100131.97;;;18.55;65.94
79123;BME280;68526;44.600;26.032;2023-07-29T00:55:20;100127.22;;;18.55;65.84
79123;BME280;68526;44.600;26.032;2023-07-29T00:55:37;100133.16;;;18.54;66.16
79123;BME280;68526;44.600;26.032;2023-07-29T00:55:52;100125.59;;;18.51;66.22
79123;BME280;68526;44.600;26.032;2023-07-29T00:56:08;100131.56;;;18.53;65.94
79123;BME280;68526;44.600;26.032;2023-07-29T00:56:25;100127.59;;;18.54;66.06
79123;BME280;68526;44.600;26.032;2023-07-29T00:56:41;100129.19;;;18.55;65.89
79123;BME280;68526;44.600;26.032;2023-07-29T00:56:57;100124.81;;;18.54;65.99
79123;BME280;68526;44.600;26.032;2023-07-29T00:57:13;100125.63;;;18.54;65.96
79123;BME280;68526;44.600;26.032;2023-07-29T00:57:31;100128.78;;;18.53;66.17
79123;BME280;68526;44.600;26.032;2023-07-29T00:57:48;100127.22;;;18.55;65.93
79123;BME280;68526;44.600;26.032;2023-07-29T00:58:04;100123.22;;;18.53;66.10
79123;BME280;68526;44.600;26.032;2023-07-29T00:58:21;100126.81;;;18.53;65.79
79123;BME280;68526;44.600;26.032;2023-07-29T00:58:38;100127.59;;;18.54;66.10
79123;BME280;68526;44.600;26.032;2023-07-29T00:58:54;100116.50;;;18.54;66.04
79123;BME280;68526;44.600;26.032;2023-07-29T00:59:14;100131.16;;;18.54;65.99
79123;BME280;68526;44.600;26.032;2023-07-29T00:59:30;100128.00;;;18.56;65.98
79123;BME280;68526;44.600;26.032;2023-07-29T00:59:47;100127.22;;;18.55;65.92
79123;BME280;68526;44.600;26.032;2023-07-29T01:00:04;100135.91;;;18.54;66.34
79123;BME280;68526;44.600;26.032;2023-07-29T01:00:21;100133.94;;;18.54;66.27
79123;BME280;68526;44.600;26.032;2023-07-29T01:00:38;100131.56;;;18.53;66.47
79123;BME280;68526;44.600;26.032;2023-07-29T01:00:55;100134.34;;;18.53;66.26
79123;BME280;68526;44.600;26.032;2023-07-29T01:01:12;100133.16;;;18.54;66.17
79123;BME280;68526;44.600;26.032;2023-07-29T01:01:28;100131.56;;;18.53;66.48
79123;BME280;68526;44.600;26.032;2023-07-29T01:01:44;100134.34;;;18.53;66.41
79123;BME280;68526;44.600;26.032;2023-07-29T01:01:59;100130.75;;;18.52;66.52
79123;BME280;68526;44.600;26.032;2023-07-29T01:02:16;100131.50;;;18.49;67.15
79123;BME280;68526;44.600;26.032;2023-07-29T01:02:32;100135.47;;;18.48;66.74
79123;BME280;68526;44.600;26.032;2023-07-29T01:02:48;100142.97;;;18.48;66.54
79123;BME280;68526;44.600;26.032;2023-07-29T01:03:04;100138.22;;;18.48;66.70
79123;BME280;68526;44.600;26.032;2023-07-29T01:03:21;100139.41;;;18.47;66.54
79123;BME280;68526;44.600;26.032;2023-07-29T01:03:38;100139.81;;;18.49;66.46
79123;BME280;68526;44.600;26.032;2023-07-29T01:03:55;100143.41;;;18.50;66.52
79123;BME280;68526;44.600;26.032;2023-07-29T01:04:10;100146.16;;;18.50;66.37
79123;BME280;68526;44.600;26.032;2023-07-29T01:04:26;100139.03;;;18.49;66.47
79123;BME280;68526;44.600;26.032;2023-07-29T01:04:42;100141.81;;;18.49;66.56
79123;BME280;68526;44.600;26.032;2023-07-29T01:04:58;100140.63;;;18.50;66.42
79123;BME280;68526;44.600;26.032;2023-07-29T01:05:16;100140.22;;;18.48;66.47
79123;BME280;68526;44.600;26.032;2023-07-29T01:05:39;100139.81;;;18.49;66.47
79123;BME280;68526;44.600;26.032;2023-07-29T01:06:08;100140.63;;;18.50;66.59
79123;BME280;68526;44.600;26.032;2023-07-29T01:06:34;100144.56;;;18.49;66.53
79123;BME280;68526;44.600;26.032;2023-07-29T01:06:57;100141.00;;;18.48;66.74
79123;BME280;68526;44.600;26.032;2023-07-29T01:07:20;100149.72;;;18.47;66.77
79123;BME280;68526;44.600;26.032;2023-07-29T01:07:44;100141.41;;;18.47;66.90
79123;BME280;68526;44.600;26.032;2023-07-29T01:08:20;100136.22;;;18.45;66.91
79123;BME280;68526;44.600;26.032;2023-07-29T01:08:45;100140.59;;;18.46;66.85
79123;BME280;68526;44.600;26.032;2023-07-29T01:09:03;100144.56;;;18.49;66.86
79123;BME280;68526;44.600;26.032;2023-07-29T01:09:25;100136.63;;;18.47;66.49
79123;BME280;68526;44.600;26.032;2023-07-29T01:09:53;100143.78;;;18.48;67.22
79123;BME280;68526;44.600;26.032;2023-07-29T01:10:19;100140.59;;;18.46;67.18
79123;BME280;68526;44.600;26.032;2023-07-29T01:10:41;100139.34;;;18.43;67.04
79123;BME280;68526;44.600;26.032;2023-07-29T01:11:06;100142.97;;;18.48;67.10
79123;BME280;68526;44.600;26.032;2023-07-29T01:11:34;100147.34;;;18.49;67.18
79123;BME280;68526;44.600;26.032;2023-07-29T01:11:57;100138.22;;;18.45;67.21
79123;BME280;68526;44.600;26.032;2023-07-29T01:12:20;100141.41;;;18.47;67.38
79123;BME280;68526;44.600;26.032;2023-07-29T01:12:44;100137.41;;;18.44;67.16
79123;BME280;68526;44.600;26.032;2023-07-29T01:13:06;100140.97;;;18.45;67.54
79123;BME280;68526;44.600;26.032;2023-07-29T01:13:31;100137.41;;;18.44;67.54
79123;BME280;68526;44.600;26.032;2023-07-29T01:13:50;100139.34;;;18.43;67.37
79123;BME280;68526;44.600;26.032;2023-07-29T01:14:19;100140.19;;;18.44;67.43
79123;BME280;68526;44.600;26.032;2023-07-29T01:14:46;100137.78;;;18.42;67.50
79123;BME280;68526;44.600;26.032;2023-07-29T01:15:11;100146.09;;;18.42;67.45
79123;BME280;68526;44.600;26.032;2023-07-29T01:15:35;100136.97;;;18.42;67.60
79123;BME280;68526;44.600;26.032;2023-07-29T01:15:55;100139.72;;;18.38;67.74
79123;BME280;68526;44.600;26.032;2023-07-29T01:16:16;100142.91;;;18.40;67.30
79123;BME280;68526;44.600;26.032;2023-07-29T01:16:39;100139.34;;;18.40;67.34
79123;BME280;68526;44.600;26.032;2023-07-29T01:17:01;100137.34;;;18.40;67.59
79123;BME280;68526;44.600;26.032;2023-07-29T01:17:23;100138.91;;;18.38;67.24
79123;BME280;68526;44.600;26.032;2023-07-29T01:17:42;100136.97;;;18.42;67.42
79123;BME280;68526;44.600;26.032;2023-07-29T01:18:04;100130.63;;;18.41;67.27
79123;BME280;68526;44.600;26.032;2023-07-29T01:18:23;100134.59;;;18.40;67.31
79123;BME280;68526;44.600;26.032;2023-07-29T01:18:39;100132.19;;;18.39;67.30
79123;BME280;68526;44.600;26.032;2023-07-29T01:18:55;100140.94;;;18.41;67.05
79123;BME280;68526;44.600;26.032;2023-07-29T01:19:23;100134.19;;;18.42;67.37
79123;BME280;68526;44.600;26.032;2023-07-29T01:19:59;100138.94;;;18.41;67.49
79123;BME280;68526;44.600;26.032;2023-07-29T01:20:16;100141.72;;;18.41;67.56
79123;BME280;68526;44.600;26.032;2023-07-29T01:20:33;100135.38;;;18.41;67.47
79123;BME280;68526;44.600;26.032;2023-07-29T01:20:54;100136.19;;;18.41;67.46
79123;BME280;68526;44.600;26.032;2023-07-29T01:21:11;100141.72;;;18.41;67.23
79123;BME280;68526;44.600;26.032;2023-07-29T01:21:29;100140.94;;;18.41;67.25
79123;BME280;68526;44.600;26.032;2023-07-29T01:21:45;100140.13;;;18.40;67.21
79123;BME280;68526;44.600;26.032;2023-07-29T01:22:01;100133.78;;;18.40;67.39
79123;BME280;68526;44.600;26.032;2023-07-29T01:22:19;100143.28;;;18.39;67.49
79123;BME280;68526;44.600;26.032;2023-07-29T01:22:38;100134.59;;;18.40;67.29
79123;BME280;68526;44.600;26.032;2023-07-29T01:22:55;100141.31;;;18.39;67.30
79123;BME280;68526;44.600;26.032;2023-07-29T01:23:12;100140.13;;;18.40;67.52
79123;BME280;68526;44.600;26.032;2023-07-29T01:23:31;100134.97;;;18.39;67.56
79123;BME280;68526;44.600;26.032;2023-07-29T01:23:47;100141.25;;;18.36;67.53
79123;BME280;68526;44.600;26.032;2023-07-29T01:24:03;100137.28;;;18.33;67.36
79123;BME280;68526;44.600;26.032;2023-07-29T01:24:19;100141.66;;;18.34;67.37
79123;BME280;68526;44.600;26.032;2023-07-29T01:24:34;100139.59;;;18.31;67.56
79123;BME280;68526;44.600;26.032;2023-07-29T01:24:50;100148.69;;;18.28;67.84
79123;BME280;68526;44.600;26.032;2023-07-29T01:25:06;100144.22;;;18.20;67.80
79123;BME280;68526;44.600;26.032;2023-07-29T01:25:23;100141.03;;;18.18;67.50
79123;BME280;68526;44.600;26.032;2023-07-29T01:25:39;100140.63;;;18.16;67.64
79123;BME280;68526;44.600;26.032;2023-07-29T01:25:55;100143.41;;;18.16;67.52
79123;BME280;68526;44.600;26.032;2023-07-29T01:26:11;100155.28;;;18.17;67.52
79123;BME280;68526;44.600;26.032;2023-07-29T01:26:27;100143.34;;;18.12;67.41
79123;BME280;68526;44.600;26.032;2023-07-29T01:26:44;100144.91;;;18.10;67.45
79123;BME280;68526;44.600;26.032;2023-07-29T01:27:00;100142.06;;;18.06;67.53
79123;BME280;68526;44.600;26.032;2023-07-29T01:27:16;100143.19;;;18.02;67.54
79123;BME280;68526;44.600;26.032;2023-07-29T01:27:33;100140.31;;;17.95;67.66
79123;BME280;68526;44.600;26.032;2023-07-29T01:27:52;100144.22;;;17.90;67.87
79123;BME280;68526;44.600;26.032;2023-07-29T01:28:08;100137.88;;;17.89;67.92
79123;BME280;68526;44.600;26.032;2023-07-29T01:28:24;100135.81;;;17.83;68.24
79123;BME280;68526;44.600;26.032;2023-07-29T01:28:41;100137.41;;;17.84;68.16
79123;BME280;68526;44.600;26.032;2023-07-29T01:28:57;100131.84;;;17.84;67.96
79123;BME280;68526;44.600;26.032;2023-07-29T01:29:13;100140.53;;;17.82;68.33